KHDN/HDN METAR and TAF weather

Enter ICAO airport designator
Station Type Date Time Source
KHDN METAR 2019/10/15 20:56 UTC NOAA

KHDN 152056Z AUTO 28012KT 10SM CLR 16/M13 A3027 RMK AO2 SLP225 T01611128 57013


Station Type Date Time Source
KHDN Decoded METAR 2019/10/15 20:56 UTC NOAA

Hayden, Yampa Valley Airport, CO, United States (KHDN) 40-29N 107-13W
Oct 15, 2019 - 04:56 PM EDT / 2019.10.15 2056 UTC
Wind: from the W (280 degrees) at 14 MPH (12 KT):0
Visibility: 10 mile(s):0
Sky conditions: clear
Temperature: 61.0 F (16.1 C)
Dew Point: 9.0 F (-12.8 C)
Relative Humidity: 12%
Pressure (altimeter): 30.27 in. Hg (1025 hPa)
Pressure tendency: 0.04 inches (1.3 hPa) lower than three hours ago
ob: KHDN 152056Z AUTO 28012KT 10SM CLR 16/M13 A3027 RMK AO2 SLP225 T01611128 57013
cycle: 21

Station Type Date Time Source
KHDN TAF 2019/10/15 18:27 UTC NOAA

TAF KHDN 151724Z 1518/1618 VRB04KT P6SM SKC
FM152000 28010KT P6SM SKC
FM160200 VRB04KT P6SM SKC
FM160500 11005KT P6SM SKC
FM161600 14006KT P6SM FEW250

Example: see airport list